createdAt,value
2018-09-13T00:00:40.852Z,20.24
2018-09-13T00:01:40.888Z,20.23
2018-09-13T00:02:41.537Z,20.24
2018-09-13T00:03:40.996Z,20.18
2018-09-13T00:04:41.041Z,20.27
2018-09-13T00:05:41.141Z,20.24
2018-09-13T00:06:41.142Z,20.21
2018-09-13T00:07:41.259Z,20.24
2018-09-13T00:08:41.248Z,20.24
2018-09-13T00:09:41.296Z,20.24
2018-09-13T00:10:41.387Z,20.16
2018-09-13T00:11:41.460Z,20.09
2018-09-13T00:12:41.451Z,20.05
2018-09-13T00:13:41.505Z,19.98
2018-09-13T00:14:41.557Z,19.98
2018-09-13T00:15:41.634Z,19.91
2018-09-13T00:16:41.657Z,19.95
2018-09-13T00:17:42.541Z,19.84
2018-09-13T00:18:41.830Z,19.83
2018-09-13T00:19:41.812Z,19.87
2018-09-13T00:20:41.890Z,19.93
2018-09-13T00:21:41.912Z,19.93
2018-09-13T00:22:41.978Z,19.97
2018-09-13T00:23:42.015Z,19.94
2018-09-13T00:24:42.063Z,19.94
2018-09-13T00:25:42.188Z,19.91
2018-09-13T00:26:42.169Z,20.02
2018-09-13T00:27:42.246Z,20.02
2018-09-13T00:28:42.292Z,20.08
2018-09-13T00:29:42.328Z,20.06
2018-09-13T00:30:42.376Z,20.10
2018-09-13T00:31:42.422Z,20.13
2018-09-13T00:32:42.502Z,20.16
2018-09-13T00:33:42.550Z,20.16
2018-09-13T00:34:42.575Z,20.18
2018-09-13T00:35:42.627Z,20.15
2018-09-13T00:36:42.698Z,20.13
2018-09-13T00:37:42.748Z,20.09
2018-09-13T00:38:42.802Z,20.12
2018-09-13T00:39:42.837Z,20.05
2018-09-13T00:40:42.883Z,20.02
2018-09-13T00:41:42.945Z,19.98
2018-09-13T00:42:42.985Z,20.06
2018-09-13T00:43:43.055Z,20.10
2018-09-13T00:44:43.196Z,20.05
2018-09-13T00:45:43.147Z,20.05
2018-09-13T00:46:43.189Z,19.95
2018-09-13T00:47:43.246Z,19.94
2018-09-13T00:48:43.317Z,19.87
2018-09-13T00:49:43.373Z,19.95
2018-09-13T00:50:44.049Z,19.86
2018-09-13T00:51:43.446Z,19.87
2018-09-13T00:52:43.498Z,19.83
2018-09-13T00:53:43.548Z,19.86
2018-09-13T00:54:43.617Z,19.93
2018-09-13T00:55:43.652Z,20.02
2018-09-13T00:56:43.713Z,20.08
2018-09-13T00:57:43.799Z,20.09
2018-09-13T00:58:43.811Z,20.06
2018-09-13T00:59:43.856Z,20.06
2018-09-13T01:00:43.908Z,20.12
2018-09-13T01:01:43.955Z,20.18
2018-09-13T01:02:44.054Z,20.25
2018-09-13T01:03:44.066Z,20.38
2018-09-13T01:04:44.115Z,20.43
2018-09-13T01:05:44.166Z,20.34
2018-09-13T01:06:44.212Z,20.38
2018-09-13T01:07:44.285Z,20.34
2018-09-13T01:08:44.317Z,20.34
2018-09-13T01:09:44.366Z,20.31
2018-09-13T01:10:44.421Z,20.23
2018-09-13T01:11:44.471Z,20.23
2018-09-13T01:12:44.542Z,20.15
2018-09-13T01:13:45.088Z,20.05
2018-09-13T01:14:44.656Z,20.16
2018-09-13T01:15:45.088Z,20.08
2018-09-13T01:16:44.730Z,19.98
2018-09-13T01:17:44.784Z,19.94
2018-09-13T01:18:44.827Z,19.90
2018-09-13T01:19:44.898Z,19.83
2018-09-13T01:20:45.409Z,19.83
2018-09-13T01:21:44.986Z,19.83
2018-09-13T01:22:45.559Z,19.83
2018-09-13T01:23:45.113Z,19.80
2018-09-13T01:24:45.146Z,19.76
2018-09-13T01:25:45.189Z,19.76
2018-09-13T01:26:45.235Z,19.69
2018-09-13T01:27:45.289Z,19.70
2018-09-13T01:28:45.365Z,19.54
2018-09-13T01:29:45.422Z,19.50
2018-09-13T01:30:45.461Z,19.47
2018-09-13T01:31:45.496Z,19.46
2018-09-13T01:32:45.548Z,19.32
2018-09-13T01:33:45.593Z,19.43
2018-09-13T01:34:46.562Z,19.42
2018-09-13T01:35:45.716Z,19.40
2018-09-13T01:36:45.751Z,19.53
2018-09-13T01:37:45.801Z,19.60
2018-09-13T01:38:45.849Z,19.53
2018-09-13T01:39:45.904Z,19.63
2018-09-13T01:40:46.055Z,19.66
2018-09-13T01:41:46.006Z,19.50
2018-09-13T01:42:46.067Z,19.55
2018-09-13T01:43:46.107Z,19.60
2018-09-13T01:44:46.156Z,19.50
2018-09-13T01:45:47.066Z,19.43
2018-09-13T01:46:46.324Z,19.33
2018-09-13T01:47:46.870Z,19.35
2018-09-13T01:48:46.367Z,19.24
2018-09-13T01:49:46.414Z,19.11
2018-09-13T01:50:46.503Z,19.06
2018-09-13T01:51:46.516Z,19.05
2018-09-13T01:52:46.582Z,18.90
2018-09-13T01:53:46.630Z,18.86
2018-09-13T01:54:46.681Z,18.97
2018-09-13T01:55:46.724Z,18.86
2018-09-13T01:56:46.770Z,18.84
2018-09-13T01:57:46.838Z,18.79
2018-09-13T01:58:47.569Z,18.86
2018-09-13T01:59:46.926Z,18.83
2018-09-13T02:00:46.972Z,18.82
2018-09-13T02:01:47.114Z,18.76
2018-09-13T02:02:47.072Z,18.77
2018-09-13T02:03:47.125Z,18.76
2018-09-13T02:04:47.184Z,18.65
2018-09-13T02:05:47.244Z,18.73
2018-09-13T02:06:47.285Z,18.79
2018-09-13T02:07:47.354Z,18.70
2018-09-13T02:08:47.382Z,18.70
2018-09-13T02:09:47.434Z,18.62
2018-09-13T02:10:47.481Z,18.68
2018-09-13T02:11:47.535Z,18.61
2018-09-13T02:12:47.607Z,18.58
2018-09-13T02:13:47.636Z,18.62
2018-09-13T02:14:47.685Z,18.59
2018-09-13T02:15:47.781Z,18.61
2018-09-13T02:16:51.077Z,18.67
2018-09-13T02:17:49.573Z,18.50
2018-09-13T02:18:47.884Z,18.55
2018-09-13T02:19:47.945Z,18.57
2018-09-13T02:20:48.045Z,18.59
2018-09-13T02:21:48.038Z,18.64
2018-09-13T02:22:48.091Z,18.64
2018-09-13T02:23:48.168Z,18.61
2018-09-13T02:24:48.219Z,18.68
2018-09-13T02:25:48.241Z,18.64
2018-09-13T02:26:48.295Z,18.55
2018-09-13T02:27:48.468Z,18.55
2018-09-13T02:28:48.416Z,18.57
2018-09-13T02:29:48.470Z,18.57
2018-09-13T02:30:48.501Z,18.59
2018-09-13T02:31:48.546Z,18.70
2018-09-13T02:32:48.600Z,18.64
2018-09-13T02:33:48.649Z,18.61
2018-09-13T02:34:48.738Z,18.70
2018-09-13T02:35:48.749Z,18.73
2018-09-13T02:36:48.803Z,18.67
2018-09-13T02:37:48.849Z,18.70
2018-09-13T02:38:48.925Z,18.70
2018-09-13T02:39:48.975Z,18.74
2018-09-13T02:40:49.014Z,18.64
2018-09-13T02:41:49.064Z,18.67
2018-09-13T02:42:49.107Z,18.72
2018-09-13T02:43:49.174Z,18.70
2018-09-13T02:44:49.235Z,18.61
2018-09-13T02:45:49.256Z,18.59
2018-09-13T02:46:49.308Z,18.55
2018-09-13T02:47:49.368Z,18.50
2018-09-13T02:48:49.406Z,18.49
2018-09-13T02:49:49.484Z,18.50
2018-09-13T02:50:49.511Z,18.52
2018-09-13T02:51:49.570Z,18.46
2018-09-13T02:52:49.614Z,18.44
2018-09-13T02:53:49.669Z,18.49
2018-09-13T02:54:49.747Z,18.36
2018-09-13T02:55:49.782Z,18.39
2018-09-13T02:56:49.817Z,18.34
2018-09-13T02:57:49.866Z,18.33
2018-09-13T02:58:49.914Z,18.36
2018-09-13T02:59:50.009Z,18.34
2018-09-13T03:00:50.025Z,18.27
2018-09-13T03:01:50.087Z,18.33
2018-09-13T03:02:50.121Z,18.31
2018-09-13T03:03:50.170Z,18.33
2018-09-13T03:04:50.219Z,18.27
2018-09-13T03:05:50.279Z,18.22
2018-09-13T03:06:50.345Z,18.19
2018-09-13T03:07:50.377Z,18.18
2018-09-13T03:08:50.428Z,18.10
2018-09-13T03:09:50.473Z,18.13
2018-09-13T03:10:50.524Z,18.02
2018-09-13T03:11:50.594Z,18.03
2018-09-13T03:12:50.629Z,18.03
2018-09-13T03:13:50.673Z,18.07
2018-09-13T03:14:50.731Z,18.02
2018-09-13T03:15:50.777Z,18.03
2018-09-13T03:16:50.856Z,18.18
2018-09-13T03:17:50.880Z,18.09
2018-09-13T03:18:50.963Z,18.03
2018-09-13T03:19:50.982Z,18.04
2018-09-13T03:20:51.043Z,18.19
2018-09-13T03:21:51.091Z,18.15
2018-09-13T03:22:51.158Z,18.15
2018-09-13T03:23:51.419Z,18.15
2018-09-13T03:24:51.231Z,18.15
2018-09-13T03:25:51.291Z,18.09
2018-09-13T03:26:51.335Z,18.12
2018-09-13T03:27:51.391Z,18.04
2018-09-13T03:28:51.458Z,18.15
2018-09-13T03:29:51.495Z,18.13
2018-09-13T03:30:51.578Z,18.10
2018-09-13T03:31:51.586Z,18.07
2018-09-13T03:32:51.668Z,18.04
2018-09-13T03:33:51.690Z,17.99
2018-09-13T03:34:51.739Z,17.99
2018-09-13T03:35:51.789Z,17.99
2018-09-13T03:36:51.845Z,17.99
2018-09-13T03:37:51.939Z,17.97
2018-09-13T03:38:51.942Z,17.99
2018-09-13T03:39:51.999Z,18.03
2018-09-13T03:40:52.052Z,17.94
2018-09-13T03:41:52.146Z,18.00
2018-09-13T03:42:52.165Z,17.92
2018-09-13T03:43:52.217Z,17.99
2018-09-13T03:44:52.901Z,17.91
2018-09-13T03:45:52.300Z,17.89
2018-09-13T03:46:52.358Z,17.88
2018-09-13T03:47:52.398Z,17.89
2018-09-13T03:48:52.468Z,17.89
2018-09-13T03:49:52.499Z,17.92
2018-09-13T03:50:52.552Z,17.91
2018-09-13T03:51:52.609Z,17.88
2018-09-13T03:52:52.653Z,17.81
2018-09-13T03:53:52.719Z,17.82
2018-09-13T03:54:52.749Z,17.88
2018-09-13T03:55:52.822Z,17.89
2018-09-13T03:56:52.852Z,17.94
2018-09-13T03:57:52.899Z,17.85
2018-09-13T03:58:52.950Z,17.87
2018-09-13T03:59:53.004Z,17.84
2018-09-13T04:00:53.078Z,17.84
2018-09-13T04:01:53.153Z,17.84
2018-09-13T04:02:53.158Z,17.92
2018-09-13T04:03:53.203Z,17.91
2018-09-13T04:04:53.257Z,17.84
2018-09-13T04:05:53.330Z,17.88
2018-09-13T04:06:53.363Z,17.84
2018-09-13T04:07:53.417Z,17.89
2018-09-13T04:08:53.456Z,17.88
2018-09-13T04:09:53.535Z,17.89
2018-09-13T04:10:53.565Z,17.97
2018-09-13T04:11:53.645Z,17.88
2018-09-13T04:12:53.659Z,17.94
2018-09-13T04:13:53.710Z,17.88
2018-09-13T04:14:53.764Z,17.91
2018-09-13T04:15:53.832Z,17.88
2018-09-13T04:16:53.867Z,17.84
2018-09-13T04:17:54.058Z,17.70
2018-09-13T04:18:53.984Z,17.74
2018-09-13T04:19:54.021Z,17.71
2018-09-13T04:20:54.061Z,17.67
2018-09-13T04:21:54.118Z,17.66
2018-09-13T04:22:54.186Z,17.70
2018-09-13T04:23:54.219Z,17.64
2018-09-13T04:24:54.267Z,17.66
2018-09-13T04:25:54.334Z,17.70
2018-09-13T04:26:54.384Z,17.59
2018-09-13T04:27:54.416Z,17.69
2018-09-13T04:28:54.467Z,17.63
2018-09-13T04:29:54.525Z,17.66
2018-09-13T04:30:54.602Z,17.71
2018-09-13T04:31:54.620Z,17.67
2018-09-13T04:32:54.718Z,17.67
2018-09-13T04:33:54.718Z,17.70
2018-09-13T04:34:54.769Z,17.67
2018-09-13T04:35:54.879Z,17.67
2018-09-13T04:36:54.876Z,17.67
2018-09-13T04:37:54.923Z,17.70
2018-09-13T04:38:54.983Z,17.70
2018-09-13T04:39:55.048Z,17.81
2018-09-13T04:40:55.076Z,17.82
2018-09-13T04:41:55.126Z,17.85
2018-09-13T04:42:55.174Z,17.81
2018-09-13T04:43:55.222Z,17.85
2018-09-13T04:44:55.315Z,17.85
2018-09-13T04:45:55.328Z,17.87
2018-09-13T04:46:55.373Z,17.82
2018-09-13T04:47:55.443Z,17.84
2018-09-13T04:48:55.475Z,17.92
2018-09-13T04:49:55.532Z,17.89
2018-09-13T04:50:55.590Z,17.84
2018-09-13T04:51:55.628Z,17.79
2018-09-13T04:52:55.701Z,17.82
2018-09-13T04:53:55.728Z,17.74
2018-09-13T04:54:55.783Z,17.76
2018-09-13T04:55:55.853Z,17.79
2018-09-13T04:56:55.880Z,17.70
2018-09-13T04:57:55.953Z,17.66
2018-09-13T04:58:55.978Z,17.64
2018-09-13T04:59:56.033Z,17.66
2018-09-13T05:00:56.088Z,17.67
2018-09-13T05:01:56.140Z,17.70
2018-09-13T05:02:56.203Z,17.76
2018-09-13T05:03:56.236Z,17.82
2018-09-13T05:04:56.286Z,17.81
2018-09-13T05:05:56.339Z,17.84
2018-09-13T05:06:56.479Z,17.85
2018-09-13T05:07:56.456Z,17.82
2018-09-13T05:08:56.482Z,17.81
2018-09-13T05:09:56.535Z,17.81
2018-09-13T05:10:56.586Z,17.79
2018-09-13T05:11:56.638Z,17.81
2018-09-13T05:12:56.743Z,17.87
2018-09-13T05:13:56.829Z,17.78
2018-09-13T05:14:56.787Z,17.81
2018-09-13T05:15:56.837Z,17.82
2018-09-13T05:16:56.887Z,17.87
2018-09-13T05:17:56.965Z,17.85
2018-09-13T05:18:56.989Z,17.81
2018-09-13T05:19:57.037Z,17.82
2018-09-13T05:20:57.170Z,17.81
2018-09-13T05:21:57.146Z,17.94
2018-09-13T05:22:57.212Z,17.88
2018-09-13T05:23:57.249Z,17.84
2018-09-13T05:24:57.295Z,17.91
2018-09-13T05:25:57.351Z,18.03
2018-09-13T05:26:57.390Z,17.97
2018-09-13T05:27:57.484Z,17.95
2018-09-13T05:28:57.493Z,17.99
2018-09-13T05:29:57.541Z,17.99
2018-09-13T05:30:57.593Z,18.00
2018-09-13T05:31:57.649Z,18.00
2018-09-13T05:32:57.710Z,18.00
2018-09-13T05:33:57.766Z,18.00
2018-09-13T05:34:57.830Z,17.97
2018-09-13T05:35:57.850Z,18.00
2018-09-13T05:36:57.902Z,18.07
2018-09-13T05:37:57.947Z,18.09
2018-09-13T05:38:59.225Z,18.04
2018-09-13T05:39:58.630Z,18.12
2018-09-13T05:40:58.099Z,18.15
2018-09-13T05:41:58.152Z,18.15
2018-09-13T05:42:58.203Z,18.10
2018-09-13T05:43:58.249Z,18.10
2018-09-13T05:44:58.321Z,18.10
2018-09-13T05:45:58.380Z,18.21
2018-09-13T05:46:58.401Z,18.25
2018-09-13T05:47:58.466Z,18.21
2018-09-13T05:48:58.509Z,18.22
2018-09-13T05:49:58.578Z,18.25
2018-09-13T05:50:58.600Z,18.28
2018-09-13T05:51:58.654Z,18.27
2018-09-13T05:52:58.702Z,18.33
2018-09-13T05:53:58.792Z,18.34
2018-09-13T05:54:58.811Z,18.36
2018-09-13T05:55:58.877Z,18.44
2018-09-13T05:56:58.911Z,18.49
2018-09-13T05:57:58.974Z,18.49
2018-09-13T05:58:59.006Z,18.54
2018-09-13T05:59:59.056Z,18.52
2018-09-13T06:00:59.116Z,18.52
2018-09-13T06:01:59.160Z,18.47
2018-09-13T06:02:59.226Z,18.52
2018-09-13T06:03:59.265Z,18.58
2018-09-13T06:04:59.309Z,18.64
2018-09-13T06:05:59.370Z,18.55
2018-09-13T06:06:59.410Z,18.54
2018-09-13T06:07:59.507Z,18.65
2018-09-13T06:08:59.513Z,18.62
2018-09-13T06:09:59.573Z,18.65
2018-09-13T06:10:59.617Z,18.74
2018-09-13T06:11:59.677Z,18.67
2018-09-13T06:12:59.756Z,18.76
2018-09-13T06:13:59.764Z,18.83
2018-09-13T06:14:59.819Z,18.84
2018-09-13T06:15:59.885Z,18.82
2018-09-13T06:16:59.922Z,18.79
2018-09-13T06:17:59.996Z,18.83
2018-09-13T06:19:00.013Z,18.86
2018-09-13T06:20:00.096Z,18.94
2018-09-13T06:21:00.123Z,18.92
2018-09-13T06:22:00.173Z,19.06
2018-09-13T06:23:00.239Z,19.18
2018-09-13T06:24:00.275Z,19.31
2018-09-13T06:25:00.322Z,19.38
2018-09-13T06:26:00.396Z,19.40
2018-09-13T06:27:00.449Z,19.43
2018-09-13T06:28:00.493Z,19.40
2018-09-13T06:29:00.566Z,19.47
2018-09-13T06:30:00.580Z,19.47
2018-09-13T06:31:00.662Z,19.38
2018-09-13T06:32:00.689Z,19.40
2018-09-13T06:33:00.755Z,19.32
2018-09-13T06:34:00.804Z,19.31
2018-09-13T06:35:00.831Z,19.23
2018-09-13T06:36:00.882Z,19.25
2018-09-13T06:37:00.964Z,19.24
2018-09-13T06:38:01.013Z,19.20
2018-09-13T06:39:01.045Z,19.23
2018-09-13T06:40:01.099Z,19.20
2018-09-13T06:41:01.143Z,19.24
2018-09-13T06:42:01.221Z,19.24
2018-09-13T06:43:01.236Z,19.28
2018-09-13T06:44:01.293Z,19.31
2018-09-13T06:45:01.368Z,19.23
2018-09-13T06:46:01.392Z,19.33
2018-09-13T06:47:01.441Z,19.36
2018-09-13T06:48:01.512Z,19.38
2018-09-13T06:49:01.546Z,19.32
2018-09-13T06:50:01.749Z,19.40
2018-09-13T06:51:02.640Z,19.35
2018-09-13T06:52:01.698Z,19.38
2018-09-13T06:53:01.758Z,19.47
2018-09-13T06:54:01.841Z,19.40
2018-09-13T06:55:01.866Z,19.47
2018-09-13T06:56:01.899Z,19.43
2018-09-13T06:57:01.955Z,19.50
2018-09-13T06:58:02.039Z,19.50
2018-09-13T06:59:02.055Z,19.51
2018-09-13T07:00:02.125Z,19.40
2018-09-13T07:01:02.152Z,19.39
2018-09-13T07:02:02.203Z,19.53
2018-09-13T07:03:02.257Z,19.40
2018-09-13T07:04:02.325Z,19.40
2018-09-13T07:05:02.381Z,19.43
2018-09-13T07:06:02.433Z,19.38
2018-09-13T07:07:02.456Z,19.53
2018-09-13T07:08:02.517Z,19.53
2018-09-13T07:09:02.576Z,19.58
2018-09-13T07:10:02.620Z,19.53
2018-09-13T07:11:02.759Z,19.55
2018-09-13T07:12:02.723Z,19.57
2018-09-13T07:13:02.763Z,19.50
2018-09-13T07:14:02.818Z,19.58
2018-09-13T07:15:02.866Z,19.54
2018-09-13T07:16:02.945Z,19.51
2018-09-13T07:17:02.968Z,19.47
2018-09-13T07:18:03.100Z,19.54
2018-09-13T07:19:03.077Z,19.57
2018-09-13T07:20:03.124Z,19.61
2018-09-13T07:21:03.197Z,19.66
2018-09-13T07:22:03.251Z,19.76
2018-09-13T07:23:03.273Z,19.86
2018-09-13T07:24:03.337Z,19.93
2018-09-13T07:25:03.381Z,19.93
2018-09-13T07:26:03.427Z,19.88
2018-09-13T07:27:03.507Z,19.80
2018-09-13T07:28:03.525Z,19.83
2018-09-13T07:29:03.577Z,19.79
2018-09-13T07:30:03.629Z,19.83
2018-09-13T07:31:03.682Z,19.86
2018-09-13T07:32:03.758Z,19.87
2018-09-13T07:33:03.783Z,19.93
2018-09-13T07:34:03.848Z,19.95
2018-09-13T07:35:03.885Z,19.93
2018-09-13T07:36:03.936Z,19.95
2018-09-13T07:37:04.029Z,20.03
2018-09-13T07:38:04.039Z,19.98
2018-09-13T07:39:04.094Z,19.98
2018-09-13T07:40:04.147Z,20.03
2018-09-13T07:41:04.198Z,20.06
2018-09-13T07:42:04.262Z,20.10
2018-09-13T07:43:04.300Z,20.23
2018-09-13T07:44:04.352Z,20.20
2018-09-13T07:45:04.399Z,20.23
2018-09-13T07:46:04.448Z,20.21
2018-09-13T07:47:04.527Z,20.23
2018-09-13T07:48:04.551Z,20.28
2018-09-13T07:49:04.657Z,20.38
2018-09-13T07:50:04.651Z,20.42
2018-09-13T07:51:04.707Z,20.50
2018-09-13T07:52:04.776Z,20.59
2018-09-13T07:53:04.825Z,20.72
2018-09-13T07:54:04.862Z,20.80
2018-09-13T07:55:04.908Z,21.09
2018-09-13T07:56:04.959Z,21.95
2018-09-13T07:57:05.010Z,22.54
2018-09-13T07:58:05.079Z,23.46
2018-09-13T07:59:05.134Z,24.31
2018-09-13T08:00:05.170Z,25.25
2018-09-13T08:01:05.220Z,25.68
2018-09-13T08:02:05.284Z,26.27
2018-09-13T08:03:05.367Z,26.68
2018-09-13T08:04:05.376Z,26.35
2018-09-13T08:05:05.485Z,26.61
2018-09-13T08:06:05.482Z,25.97
2018-09-13T08:07:05.552Z,25.89
2018-09-13T08:08:05.616Z,25.27
2018-09-13T08:09:05.637Z,25.27
2018-09-13T08:10:05.736Z,25.27
2018-09-13T08:11:05.751Z,25.87
2018-09-13T08:12:05.922Z,25.07
2018-09-13T08:13:05.858Z,24.67
2018-09-13T08:14:05.913Z,24.42
2018-09-13T08:15:05.994Z,24.52
2018-09-13T08:16:06.013Z,24.83
2018-09-13T08:17:06.070Z,25.19
2018-09-13T08:18:06.122Z,25.13
2018-09-13T08:19:06.177Z,25.25
2018-09-13T08:20:06.249Z,25.01
2018-09-13T08:21:08.186Z,24.82
2018-09-13T08:22:06.362Z,24.32
2018-09-13T08:23:06.388Z,23.50
2018-09-13T08:24:06.447Z,23.77
2018-09-13T08:25:06.518Z,24.35
2018-09-13T08:26:06.568Z,25.07
2018-09-13T08:27:06.610Z,25.64
2018-09-13T08:28:06.665Z,25.64
2018-09-13T08:29:06.731Z,25.83
2018-09-13T08:30:06.786Z,25.35
2018-09-13T08:31:06.815Z,25.64
2018-09-13T08:32:06.874Z,25.37
2018-09-13T08:33:06.925Z,25.02
2018-09-13T08:34:06.973Z,25.10
2018-09-13T08:35:07.112Z,25.06
2018-09-13T08:36:07.088Z,25.47
2018-09-13T08:37:07.228Z,25.84
2018-09-13T08:38:07.193Z,25.93
2018-09-13T08:39:07.278Z,25.82
2018-09-13T08:40:07.404Z,25.69
2018-09-13T08:41:07.358Z,25.89
2018-09-13T08:42:07.419Z,26.02
2018-09-13T08:43:07.558Z,25.68
2018-09-13T08:44:07.521Z,25.56
2018-09-13T08:45:07.625Z,25.09
2018-09-13T08:46:07.655Z,24.95
2018-09-13T08:47:07.704Z,24.71
2018-09-13T08:48:07.745Z,24.32
2018-09-13T08:49:08.679Z,23.89
2018-09-13T08:50:07.857Z,23.90
2018-09-13T08:51:07.930Z,23.64
2018-09-13T08:52:08.012Z,23.79
2018-09-13T08:53:08.040Z,24.00
2018-09-13T08:54:08.067Z,24.29
2018-09-13T08:55:08.150Z,23.87
2018-09-13T08:56:08.202Z,23.62
2018-09-13T08:57:08.229Z,23.77
2018-09-13T08:58:08.307Z,23.82
2018-09-13T08:59:08.437Z,23.57
2018-09-13T09:00:08.412Z,23.31
2018-09-13T09:01:08.989Z,23.86
2018-09-13T09:02:08.511Z,24.42
2018-09-13T09:03:08.582Z,25.13
2018-09-13T09:04:08.671Z,25.84
2018-09-13T09:05:08.672Z,26.28
2018-09-13T09:06:08.825Z,26.65
2018-09-13T09:07:08.788Z,25.79
2018-09-13T09:08:08.823Z,25.98
2018-09-13T09:09:08.940Z,26.46
2018-09-13T09:10:08.933Z,26.54
2018-09-13T09:11:09.015Z,25.97
2018-09-13T09:12:09.044Z,26.01
2018-09-13T09:13:09.100Z,25.06
2018-09-13T09:14:09.173Z,24.92
2018-09-13T09:15:09.208Z,25.24
2018-09-13T09:16:09.261Z,25.35
2018-09-13T09:17:09.324Z,25.64
2018-09-13T09:18:09.376Z,25.83
2018-09-13T09:19:09.448Z,24.94
2018-09-13T09:20:09.507Z,24.68
2018-09-13T09:21:09.552Z,24.60
2018-09-13T09:22:09.604Z,25.15
2018-09-13T09:23:09.657Z,25.67
2018-09-13T09:24:09.728Z,26.20
2018-09-13T09:25:09.851Z,25.93
2018-09-13T09:26:09.828Z,25.32
2018-09-13T09:27:09.872Z,24.94
2018-09-13T09:28:09.937Z,25.07
2018-09-13T09:29:09.997Z,25.25
2018-09-13T09:30:10.076Z,25.01
2018-09-13T09:31:10.127Z,24.02
2018-09-13T09:32:10.150Z,23.75
2018-09-13T09:33:10.208Z,23.70
2018-09-13T09:34:10.264Z,23.80
2018-09-13T09:35:10.401Z,23.95
2018-09-13T09:36:10.437Z,23.83
2018-09-13T09:37:10.426Z,24.17
2018-09-13T09:38:10.485Z,23.82
2018-09-13T09:39:10.542Z,24.04
2018-09-13T09:40:10.598Z,24.34
2018-09-13T09:41:10.670Z,24.29
2018-09-13T09:42:10.737Z,24.41
2018-09-13T09:43:10.752Z,24.42
2018-09-13T09:44:10.870Z,24.75
2018-09-13T09:45:10.870Z,24.77
2018-09-13T09:46:10.927Z,25.24
2018-09-13T09:47:10.994Z,24.60
2018-09-13T09:48:11.104Z,24.32
2018-09-13T09:49:11.088Z,23.94
2018-09-13T09:50:11.169Z,24.31
2018-09-13T09:51:11.193Z,24.53
2018-09-13T09:52:11.331Z,24.94
2018-09-13T09:53:11.309Z,24.79
2018-09-13T09:54:11.358Z,24.64
2018-09-13T09:55:11.432Z,24.52
2018-09-13T09:56:11.492Z,25.06
2018-09-13T09:57:11.553Z,24.82
2018-09-13T09:58:11.638Z,24.52
2018-09-13T09:59:11.637Z,24.60
2018-09-13T10:00:11.696Z,24.82
2018-09-13T10:01:11.748Z,24.87
2018-09-13T10:02:11.806Z,24.41
2018-09-13T10:03:11.951Z,24.49
2018-09-13T10:04:11.926Z,24.49
2018-09-13T10:05:11.983Z,24.53
2018-09-13T10:06:12.018Z,24.20
2018-09-13T10:07:12.080Z,24.07
2018-09-13T10:08:12.157Z,24.16
2018-09-13T10:09:12.280Z,23.89
2018-09-13T10:10:12.244Z,23.76
2018-09-13T10:11:12.306Z,23.89
2018-09-13T10:12:12.353Z,23.90
2018-09-13T10:13:12.431Z,23.46
2018-09-13T10:14:12.483Z,23.76
2018-09-13T10:15:12.574Z,23.89
2018-09-13T10:16:12.630Z,23.80
2018-09-13T10:17:12.632Z,23.77
2018-09-13T10:18:12.685Z,23.94
2018-09-13T10:19:12.738Z,24.00
2018-09-13T10:20:12.829Z,24.08
2018-09-13T10:21:12.847Z,23.86
2018-09-13T10:22:13.720Z,23.77
2018-09-13T10:23:12.960Z,23.76
2018-09-13T10:24:13.053Z,23.98
2018-09-13T10:25:13.097Z,23.85
2018-09-13T10:26:13.122Z,23.50
2018-09-13T10:27:13.195Z,23.17
2018-09-13T10:28:13.237Z,23.11
2018-09-13T10:29:13.299Z,22.99
2018-09-13T10:30:13.383Z,23.04
2018-09-13T10:31:13.401Z,22.97
2018-09-13T10:32:13.449Z,22.89
2018-09-13T10:33:13.504Z,23.07
2018-09-13T10:34:13.556Z,23.40
2018-09-13T10:35:13.630Z,23.58
2018-09-13T10:36:13.665Z,23.97
2018-09-13T10:37:13.721Z,23.97
2018-09-13T10:38:13.767Z,24.19
2018-09-13T10:39:13.823Z,24.14
2018-09-13T10:40:13.917Z,24.08
2018-09-13T10:41:13.930Z,24.22
2018-09-13T10:42:13.992Z,23.89
2018-09-13T10:43:14.041Z,23.55
2018-09-13T10:44:14.092Z,23.22
2018-09-13T10:45:14.189Z,23.05
2018-09-13T10:46:14.229Z,23.17
2018-09-13T10:47:14.255Z,22.97
2018-09-13T10:48:14.383Z,23.20
2018-09-13T10:49:14.365Z,23.53
2018-09-13T10:50:14.424Z,23.70
2018-09-13T10:51:14.489Z,23.82
2018-09-13T10:52:14.586Z,24.16
2018-09-13T10:53:14.596Z,24.22
2018-09-13T10:54:14.646Z,24.08
2018-09-13T10:55:14.686Z,24.10
2018-09-13T10:56:14.759Z,24.08
2018-09-13T10:57:14.798Z,24.10
2018-09-13T10:58:14.852Z,24.13
2018-09-13T10:59:14.955Z,24.50
2018-09-13T11:00:14.965Z,24.45
2018-09-13T11:01:15.059Z,24.88
2018-09-13T11:02:15.064Z,25.30
2018-09-13T11:03:15.122Z,25.61
2018-09-13T11:04:15.200Z,25.84
2018-09-13T11:05:15.233Z,26.08
2018-09-13T11:06:15.312Z,26.21
2018-09-13T11:07:15.344Z,25.69
2018-09-13T11:08:15.400Z,25.57
2018-09-13T11:09:15.457Z,25.82
2018-09-13T11:10:15.528Z,25.93
2018-09-13T11:11:15.602Z,26.11
2018-09-13T11:12:15.618Z,25.72
2018-09-13T11:13:15.672Z,25.37
2018-09-13T11:14:15.730Z,25.57
2018-09-13T11:15:15.804Z,25.87
2018-09-13T11:16:15.857Z,26.20
2018-09-13T11:17:15.896Z,26.46
2018-09-13T11:18:15.984Z,26.49
2018-09-13T11:19:16.011Z,25.94
2018-09-13T11:20:16.068Z,25.82
2018-09-13T11:21:16.146Z,25.71
2018-09-13T11:22:16.187Z,25.89
2018-09-13T11:23:16.257Z,25.83
2018-09-13T11:24:16.295Z,25.93
2018-09-13T11:25:16.344Z,25.57
2018-09-13T11:26:16.408Z,25.37
2018-09-13T11:27:16.459Z,25.16
2018-09-13T11:28:16.555Z,25.13
2018-09-13T11:29:16.576Z,25.38
2018-09-13T11:30:16.624Z,25.56
2018-09-13T11:31:16.682Z,25.82
2018-09-13T11:32:16.742Z,25.94
2018-09-13T11:33:16.830Z,25.69
2018-09-13T11:34:16.849Z,25.37
2018-09-13T11:35:16.907Z,24.94
2018-09-13T11:36:16.981Z,24.80
2018-09-13T11:37:17.023Z,24.68
2018-09-13T11:38:17.093Z,24.68
2018-09-13T11:39:17.157Z,24.23
2018-09-13T11:40:17.248Z,24.39
2018-09-13T11:41:17.237Z,24.82
2018-09-13T11:42:17.299Z,25.20
2018-09-13T11:43:17.349Z,25.01
2018-09-13T11:44:17.434Z,25.02
2018-09-13T11:45:17.463Z,24.97
2018-09-13T11:46:17.519Z,25.37
2018-09-13T11:47:17.569Z,25.80
2018-09-13T11:48:17.626Z,25.94
2018-09-13T11:49:17.730Z,26.27
2018-09-13T11:50:17.741Z,26.81
2018-09-13T11:51:17.796Z,26.87
2018-09-13T11:52:17.860Z,26.77
2018-09-13T11:53:17.906Z,26.22
2018-09-13T11:54:17.990Z,25.94
2018-09-13T11:55:18.040Z,25.89
2018-09-13T11:56:18.090Z,26.20
2018-09-13T11:57:18.147Z,25.72
2018-09-13T11:58:18.189Z,25.27
2018-09-13T11:59:18.247Z,25.43
2018-09-13T12:00:18.324Z,26.06
2018-09-13T12:01:18.430Z,26.54
2018-09-13T12:02:18.431Z,27.16
2018-09-13T12:03:18.469Z,27.67
2018-09-13T12:04:18.526Z,27.94
2018-09-13T12:05:18.613Z,28.07
2018-09-13T12:06:18.642Z,27.94
2018-09-13T12:07:18.697Z,28.14
2018-09-13T12:08:18.763Z,28.31
2018-09-13T12:09:18.832Z,28.06
2018-09-13T12:10:18.897Z,27.70
2018-09-13T12:11:18.949Z,27.38
2018-09-13T12:12:18.987Z,27.21
2018-09-13T12:13:19.820Z,27.17
2018-09-13T12:14:19.103Z,27.36
2018-09-13T12:15:19.162Z,27.85
2018-09-13T12:16:19.241Z,28.23
2018-09-13T12:17:19.301Z,28.60
2018-09-13T12:18:19.546Z,29.00
2018-09-13T12:19:19.450Z,29.49
2018-09-13T12:20:19.454Z,29.79
2018-09-13T12:21:19.537Z,29.86
2018-09-13T12:22:19.588Z,30.12
2018-09-13T12:23:19.658Z,30.21
2018-09-13T12:24:19.703Z,30.09
2018-09-13T12:25:19.757Z,29.41
2018-09-13T12:26:19.812Z,29.20
2018-09-13T12:27:19.908Z,28.90
2018-09-13T12:28:19.936Z,27.79
2018-09-13T12:29:20.001Z,27.23
2018-09-13T12:30:20.069Z,26.98
2018-09-13T12:31:20.137Z,26.64
2018-09-13T12:32:20.178Z,26.43
2018-09-13T12:33:20.257Z,26.54
2018-09-13T12:34:20.298Z,26.96
2018-09-13T12:35:20.379Z,27.11
2018-09-13T12:36:20.418Z,27.35
2018-09-13T12:37:20.526Z,27.05
2018-09-13T12:38:20.533Z,26.62
2018-09-13T12:39:20.622Z,26.58
2018-09-13T12:40:20.671Z,26.74
2018-09-13T12:41:20.719Z,26.94
2018-09-13T12:42:20.783Z,27.09
2018-09-13T12:43:20.865Z,27.32
2018-09-13T12:44:20.895Z,27.11
2018-09-13T12:45:20.956Z,27.17
2018-09-13T12:46:21.012Z,26.91
2018-09-13T12:47:21.083Z,26.74
2018-09-13T12:48:21.638Z,26.98
2018-09-13T12:49:21.262Z,26.68
2018-09-13T12:50:21.258Z,26.91
2018-09-13T12:51:21.334Z,27.02
2018-09-13T12:52:21.405Z,26.76
2018-09-13T12:53:21.435Z,26.87